sensor_id;sensor_type;location;lat;lon;timestamp;temperature;humidity
29577;DHT22;16509;53.862;10.672;2022-09-28T00:01:22;9.50;99.90
29577;DHT22;16509;53.862;10.672;2022-09-28T00:03:53;9.50;99.90
29577;DHT22;16509;53.862;10.672;2022-09-28T00:06:21;9.70;99.90
29577;DHT22;16509;53.862;10.672;2022-09-28T00:08:48;9.50;99.90
29577;DHT22;16509;53.862;10.672;2022-09-28T00:11:17;9.50;99.90
29577;DHT22;16509;53.862;10.672;2022-09-28T00:13:47;9.50;99.90
29577;DHT22;16509;53.862;10.672;2022-09-28T00:16:14;9.50;99.90
29577;DHT22;16509;53.862;10.672;2022-09-28T00:18:41;9.10;99.90
29577;DHT22;16509;53.862;10.672;2022-09-28T00:21:12;9.50;99.90
29577;DHT22;16509;53.862;10.672;2022-09-28T00:23:39;9.50;99.90
29577;DHT22;16509;53.862;10.672;2022-09-28T00:26:30;9.50;99.90
29577;DHT22;16509;53.862;10.672;2022-09-28T00:28:59;9.50;99.90
29577;DHT22;16509;53.862;10.672;2022-09-28T00:31:26;9.40;99.90
29577;DHT22;16509;53.862;10.672;2022-09-28T00:33:54;9.50;99.90
29577;DHT22;16509;53.862;10.672;2022-09-28T00:36:22;9.50;99.90
29577;DHT22;16509;53.862;10.672;2022-09-28T00:38:48;9.50;99.90
29577;DHT22;16509;53.862;10.672;2022-09-28T00:41:13;9.50;99.90
29577;DHT22;16509;53.862;10.672;2022-09-28T00:43:39;9.50;99.90
29577;DHT22;16509;53.862;10.672;2022-09-28T00:46:11;9.50;99.90
29577;DHT22;16509;53.862;10.672;2022-09-28T00:48:45;9.50;99.90
29577;DHT22;16509;53.862;10.672;2022-09-28T00:51:12;9.50;99.90
29577;DHT22;16509;53.862;10.672;2022-09-28T00:53:39;9.50;99.90
29577;DHT22;16509;53.862;10.672;2022-09-28T00:56:10;9.40;99.90
29577;DHT22;16509;53.862;10.672;2022-09-28T00:58:41;9.40;99.90
29577;DHT22;16509;53.862;10.672;2022-09-28T01:01:08;9.30;99.90
29577;DHT22;16509;53.862;10.672;2022-09-28T01:03:33;9.30;99.90
29577;DHT22;16509;53.862;10.672;2022-09-28T01:06:01;9.30;99.90
29577;DHT22;16509;53.862;10.672;2022-09-28T01:08:29;9.30;99.90
29577;DHT22;16509;53.862;10.672;2022-09-28T01:10:57;9.30;99.90
29577;DHT22;16509;53.862;10.672;2022-09-28T01:13:23;9.20;99.90
29577;DHT22;16509;53.862;10.672;2022-09-28T01:21:17;9.20;99.90
29577;DHT22;16509;53.862;10.672;2022-09-28T01:26:47;9.20;99.90
29577;DHT22;16509;53.862;10.672;2022-09-28T01:29:16;9.10;99.90
29577;DHT22;16509;53.862;10.672;2022-09-28T01:31:50;9.20;99.90
29577;DHT22;16509;53.862;10.672;2022-09-28T01:34:23;9.10;99.90
29577;DHT22;16509;53.862;10.672;2022-09-28T01:36:50;9.10;99.90
29577;DHT22;16509;53.862;10.672;2022-09-28T01:39:28;9.10;99.90
29577;DHT22;16509;53.862;10.672;2022-09-28T01:41:59;9.10;99.90
29577;DHT22;16509;53.862;10.672;2022-09-28T01:44:28;9.10;99.90
29577;DHT22;16509;53.862;10.672;2022-09-28T01:46:56;9.10;99.90
29577;DHT22;16509;53.862;10.672;2022-09-28T01:49:34;9.30;99.90
29577;DHT22;16509;53.862;10.672;2022-09-28T01:52:06;9.10;99.90
29577;DHT22;16509;53.862;10.672;2022-09-28T01:54:50;9.10;99.90
29577;DHT22;16509;53.862;10.672;2022-09-28T01:57:19;9.10;99.90
29577;DHT22;16509;53.862;10.672;2022-09-28T02:00:00;9.10;99.90
29577;DHT22;16509;53.862;10.672;2022-09-28T02:02:31;9.10;99.90
29577;DHT22;16509;53.862;10.672;2022-09-28T02:05:12;9.10;99.90
29577;DHT22;16509;53.862;10.672;2022-09-28T02:07:50;9.10;99.90
29577;DHT22;16509;53.862;10.672;2022-09-28T02:10:24;9.10;99.90
29577;DHT22;16509;53.862;10.672;2022-09-28T02:13:11;9.00;99.90
29577;DHT22;16509;53.862;10.672;2022-09-28T02:18:23;8.90;99.90
29577;DHT22;16509;53.862;10.672;2022-09-28T02:20:59;8.90;99.90
29577;DHT22;16509;53.862;10.672;2022-09-28T02:23:27;8.90;99.90
29577;DHT22;16509;53.862;10.672;2022-09-28T02:26:00;9.00;99.90
29577;DHT22;16509;53.862;10.672;2022-09-28T02:28:26;8.90;99.90
29577;DHT22;16509;53.862;10.672;2022-09-28T02:30:52;8.90;99.90
29577;DHT22;16509;53.862;10.672;2022-09-28T02:33:22;8.90;99.90
29577;DHT22;16509;53.862;10.672;2022-09-28T02:35:49;8.90;99.90
29577;DHT22;16509;53.862;10.672;2022-09-28T02:38:15;8.90;99.90
29577;DHT22;16509;53.862;10.672;2022-09-28T02:40:44;8.90;99.90
29577;DHT22;16509;53.862;10.672;2022-09-28T02:43:22;8.90;99.90
29577;DHT22;16509;53.862;10.672;2022-09-28T02:46:13;8.90;99.90
29577;DHT22;16509;53.862;10.672;2022-09-28T02:49:02;9.00;99.90
29577;DHT22;16509;53.862;10.672;2022-09-28T02:59:48;8.90;99.90
29577;DHT22;16509;53.862;10.672;2022-09-28T03:02:28;8.90;99.90
29577;DHT22;16509;53.862;10.672;2022-09-28T03:07:47;8.90;99.90
29577;DHT22;16509;53.862;10.672;2022-09-28T03:10:49;8.90;99.90
29577;DHT22;16509;53.862;10.672;2022-09-28T03:13:17;8.90;99.90
29577;DHT22;16509;53.862;10.672;2022-09-28T03:15:43;8.90;99.90
29577;DHT22;16509;53.862;10.672;2022-09-28T03:18:09;8.90;99.90
29577;DHT22;16509;53.862;10.672;2022-09-28T03:20:34;9.00;99.90
29577;DHT22;16509;53.862;10.672;2022-09-28T03:23:00;8.90;99.90
29577;DHT22;16509;53.862;10.672;2022-09-28T03:25:26;8.90;99.90
29577;DHT22;16509;53.862;10.672;2022-09-28T03:27:52;9.00;99.90
29577;DHT22;16509;53.862;10.672;2022-09-28T03:30:18;9.00;99.90
29577;DHT22;16509;53.862;10.672;2022-09-28T03:32:43;9.00;99.90
29577;DHT22;16509;53.862;10.672;2022-09-28T03:35:09;9.10;99.90
29577;DHT22;16509;53.862;10.672;2022-09-28T03:37:35;8.90;99.90
29577;DHT22;16509;53.862;10.672;2022-09-28T03:40:02;8.80;99.90
29577;DHT22;16509;53.862;10.672;2022-09-28T03:42:28;8.90;99.90
29577;DHT22;16509;53.862;10.672;2022-09-28T03:44:53;8.90;99.90
29577;DHT22;16509;53.862;10.672;2022-09-28T03:47:19;8.90;99.90
29577;DHT22;16509;53.862;10.672;2022-09-28T03:49:45;8.90;99.90
29577;DHT22;16509;53.862;10.672;2022-09-28T03:52:12;8.90;99.90
29577;DHT22;16509;53.862;10.672;2022-09-28T03:54:38;8.90;99.90
29577;DHT22;16509;53.862;10.672;2022-09-28T03:57:04;8.90;99.90
29577;DHT22;16509;53.862;10.672;2022-09-28T03:59:29;8.90;99.90
29577;DHT22;16509;53.862;10.672;2022-09-28T04:01:55;8.90;99.90
29577;DHT22;16509;53.862;10.672;2022-09-28T04:04:21;8.90;99.90
29577;DHT22;16509;53.862;10.672;2022-09-28T04:06:47;8.80;99.90
29577;DHT22;16509;53.862;10.672;2022-09-28T04:09:12;8.80;99.90
29577;DHT22;16509;53.862;10.672;2022-09-28T04:11:38;8.80;99.90
29577;DHT22;16509;53.862;10.672;2022-09-28T04:14:03;8.80;99.90
29577;DHT22;16509;53.862;10.672;2022-09-28T04:16:29;8.80;99.90
29577;DHT22;16509;53.862;10.672;2022-09-28T04:18:56;8.80;99.90
29577;DHT22;16509;53.862;10.672;2022-09-28T04:21:21;8.80;99.90
29577;DHT22;16509;53.862;10.672;2022-09-28T04:23:47;8.80;99.90
29577;DHT22;16509;53.862;10.672;2022-09-28T04:26:23;8.80;99.90
29577;DHT22;16509;53.862;10.672;2022-09-28T04:28:49;8.70;99.90
29577;DHT22;16509;53.862;10.672;2022-09-28T04:31:53;8.80;99.90
29577;DHT22;16509;53.862;10.672;2022-09-28T04:34:21;8.80;99.90
29577;DHT22;16509;53.862;10.672;2022-09-28T04:36:47;8.80;99.90
29577;DHT22;16509;53.862;10.672;2022-09-28T04:39:15;8.80;99.90
29577;DHT22;16509;53.862;10.672;2022-09-28T04:41:41;8.90;99.90
29577;DHT22;16509;53.862;10.672;2022-09-28T04:44:08;8.80;99.90
29577;DHT22;16509;53.862;10.672;2022-09-28T04:46:34;8.90;99.90
29577;DHT22;16509;53.862;10.672;2022-09-28T04:49:00;8.80;99.90
29577;DHT22;16509;53.862;10.672;2022-09-28T04:51:25;8.80;99.90
29577;DHT22;16509;53.862;10.672;2022-09-28T04:53:51;8.80;99.90
29577;DHT22;16509;53.862;10.672;2022-09-28T04:56:17;8.80;99.90
29577;DHT22;16509;53.862;10.672;2022-09-28T04:58:44;8.70;99.90
29577;DHT22;16509;53.862;10.672;2022-09-28T05:01:17;8.70;99.90
29577;DHT22;16509;53.862;10.672;2022-09-28T05:03:43;8.80;99.90
29577;DHT22;16509;53.862;10.672;2022-09-28T05:06:12;8.70;99.90
29577;DHT22;16509;53.862;10.672;2022-09-28T05:08:37;8.70;99.90
29577;DHT22;16509;53.862;10.672;2022-09-28T05:11:05;8.70;99.90
29577;DHT22;16509;53.862;10.672;2022-09-28T05:13:32;8.80;99.90
29577;DHT22;16509;53.862;10.672;2022-09-28T05:16:00;8.80;99.90
29577;DHT22;16509;53.862;10.672;2022-09-28T05:18:26;8.80;99.90
29577;DHT22;16509;53.862;10.672;2022-09-28T05:20:52;8.70;99.90
29577;DHT22;16509;53.862;10.672;2022-09-28T05:23:17;8.80;99.90
29577;DHT22;16509;53.862;10.672;2022-09-28T05:25:43;8.80;99.90
29577;DHT22;16509;53.862;10.672;2022-09-28T05:28:12;8.70;99.90
29577;DHT22;16509;53.862;10.672;2022-09-28T05:30:37;8.80;99.90
29577;DHT22;16509;53.862;10.672;2022-09-28T05:33:03;8.80;99.90
29577;DHT22;16509;53.862;10.672;2022-09-28T05:35:29;8.80;99.90
29577;DHT22;16509;53.862;10.672;2022-09-28T05:37:56;8.80;99.90
29577;DHT22;16509;53.862;10.672;2022-09-28T05:40:21;8.80;99.90
29577;DHT22;16509;53.862;10.672;2022-09-28T05:42:47;8.90;99.90
29577;DHT22;16509;53.862;10.672;2022-09-28T05:45:13;8.90;99.90
29577;DHT22;16509;53.862;10.672;2022-09-28T05:47:40;8.90;99.90
29577;DHT22;16509;53.862;10.672;2022-09-28T05:50:07;8.90;99.90
29577;DHT22;16509;53.862;10.672;2022-09-28T05:52:34;8.90;99.90
29577;DHT22;16509;53.862;10.672;2022-09-28T05:54:59;9.00;99.90
29577;DHT22;16509;53.862;10.672;2022-09-28T05:57:26;9.00;99.90
29577;DHT22;16509;53.862;10.672;2022-09-28T05:59:52;9.00;99.90
29577;DHT22;16509;53.862;10.672;2022-09-28T06:02:17;8.90;99.90
29577;DHT22;16509;53.862;10.672;2022-09-28T06:04:43;9.00;99.90
29577;DHT22;16509;53.862;10.672;2022-09-28T06:07:08;8.90;99.90
29577;DHT22;16509;53.862;10.672;2022-09-28T06:09:34;8.90;99.90
29577;DHT22;16509;53.862;10.672;2022-09-28T06:12:00;9.00;99.90
29577;DHT22;16509;53.862;10.672;2022-09-28T06:14:25;9.00;99.90
29577;DHT22;16509;53.862;10.672;2022-09-28T06:16:51;9.00;99.90
29577;DHT22;16509;53.862;10.672;2022-09-28T06:19:17;8.80;99.90
29577;DHT22;16509;53.862;10.672;2022-09-28T06:21:43;8.90;99.90
29577;DHT22;16509;53.862;10.672;2022-09-28T06:24:12;9.00;99.90
29577;DHT22;16509;53.862;10.672;2022-09-28T06:26:40;9.10;99.90
29577;DHT22;16509;53.862;10.672;2022-09-28T06:29:08;9.00;99.90
29577;DHT22;16509;53.862;10.672;2022-09-28T06:31:34;9.00;99.90
29577;DHT22;16509;53.862;10.672;2022-09-28T06:34:00;9.00;99.90
29577;DHT22;16509;53.862;10.672;2022-09-28T06:36:28;9.00;99.90
29577;DHT22;16509;53.862;10.672;2022-09-28T06:38:57;8.90;99.90
29577;DHT22;16509;53.862;10.672;2022-09-28T06:41:27;8.90;99.90
29577;DHT22;16509;53.862;10.672;2022-09-28T06:43:52;9.00;99.90
29577;DHT22;16509;53.862;10.672;2022-09-28T06:46:18;7.80;99.90
29577;DHT22;16509;53.862;10.672;2022-09-28T06:48:45;8.90;99.90
29577;DHT22;16509;53.862;10.672;2022-09-28T06:51:10;8.90;99.90
29577;DHT22;16509;53.862;10.672;2022-09-28T06:53:36;9.00;99.90
29577;DHT22;16509;53.862;10.672;2022-09-28T06:56:02;9.00;99.90
29577;DHT22;16509;53.862;10.672;2022-09-28T06:58:27;9.10;99.90
29577;DHT22;16509;53.862;10.672;2022-09-28T07:00:55;9.10;99.90
29577;DHT22;16509;53.862;10.672;2022-09-28T07:03:25;9.00;99.90
29577;DHT22;16509;53.862;10.672;2022-09-28T07:05:52;8.90;99.90
29577;DHT22;16509;53.862;10.672;2022-09-28T07:08:20;9.00;99.90
29577;DHT22;16509;53.862;10.672;2022-09-28T07:10:47;9.00;99.90
29577;DHT22;16509;53.862;10.672;2022-09-28T07:13:23;9.00;99.90
29577;DHT22;16509;53.862;10.672;2022-09-28T07:15:58;9.00;99.90
29577;DHT22;16509;53.862;10.672;2022-09-28T07:18:24;8.90;99.90
29577;DHT22;16509;53.862;10.672;2022-09-28T07:20:53;8.90;99.90
29577;DHT22;16509;53.862;10.672;2022-09-28T07:23:21;8.90;99.90
29577;DHT22;16509;53.862;10.672;2022-09-28T07:25:47;8.90;99.90
29577;DHT22;16509;53.862;10.672;2022-09-28T07:28:14;8.90;99.90
29577;DHT22;16509;53.862;10.672;2022-09-28T07:30:40;8.90;99.90
29577;DHT22;16509;53.862;10.672;2022-09-28T07:33:10;8.80;99.90
29577;DHT22;16509;53.862;10.672;2022-09-28T07:35:37;8.80;99.90
29577;DHT22;16509;53.862;10.672;2022-09-28T07:38:06;8.80;99.90
29577;DHT22;16509;53.862;10.672;2022-09-28T07:40:34;8.90;99.90
29577;DHT22;16509;53.862;10.672;2022-09-28T07:43:19;8.80;99.90
29577;DHT22;16509;53.862;10.672;2022-09-28T07:45:50;8.90;99.90
29577;DHT22;16509;53.862;10.672;2022-09-28T07:48:20;8.90;99.90
29577;DHT22;16509;53.862;10.672;2022-09-28T07:50:50;8.90;99.90
29577;DHT22;16509;53.862;10.672;2022-09-28T07:53:21;8.90;99.90
29577;DHT22;16509;53.862;10.672;2022-09-28T07:55:56;8.90;99.90
29577;DHT22;16509;53.862;10.672;2022-09-28T07:58:26;8.90;99.90
29577;DHT22;16509;53.862;10.672;2022-09-28T08:00:51;8.90;99.90
29577;DHT22;16509;53.862;10.672;2022-09-28T08:03:19;8.90;99.90
29577;DHT22;16509;53.862;10.672;2022-09-28T08:05:46;8.90;99.90
29577;DHT22;16509;53.862;10.672;2022-09-28T08:08:13;9.00;99.90
29577;DHT22;16509;53.862;10.672;2022-09-28T08:10:41;8.90;99.90
29577;DHT22;16509;53.862;10.672;2022-09-28T08:13:07;9.00;99.90
29577;DHT22;16509;53.862;10.672;2022-09-28T08:15:33;9.10;99.90
29577;DHT22;16509;53.862;10.672;2022-09-28T08:18:06;9.20;99.90
29577;DHT22;16509;53.862;10.672;2022-09-28T08:20:32;9.20;99.90
29577;DHT22;16509;53.862;10.672;2022-09-28T08:23:17;9.20;99.90
29577;DHT22;16509;53.862;10.672;2022-09-28T08:25:50;9.20;99.90
29577;DHT22;16509;53.862;10.672;2022-09-28T08:28:16;9.40;99.90
29577;DHT22;16509;53.862;10.672;2022-09-28T08:30:43;9.50;99.90
29577;DHT22;16509;53.862;10.672;2022-09-28T08:33:13;9.60;99.90
29577;DHT22;16509;53.862;10.672;2022-09-28T08:35:39;9.70;99.90
29577;DHT22;16509;53.862;10.672;2022-09-28T08:38:06;9.90;99.90
29577;DHT22;16509;53.862;10.672;2022-09-28T08:40:40;9.80;99.90
29577;DHT22;16509;53.862;10.672;2022-09-28T08:45:59;9.80;99.90
29577;DHT22;16509;53.862;10.672;2022-09-28T08:48:29;9.80;99.90
29577;DHT22;16509;53.862;10.672;2022-09-28T08:51:26;9.90;99.90
29577;DHT22;16509;53.862;10.672;2022-09-28T08:53:58;9.80;99.90
29577;DHT22;16509;53.862;10.672;2022-09-28T08:56:39;9.70;99.90
29577;DHT22;16509;53.862;10.672;2022-09-28T08:59:13;9.70;99.90
29577;DHT22;16509;53.862;10.672;2022-09-28T09:01:47;9.80;99.90
29577;DHT22;16509;53.862;10.672;2022-09-28T09:04:14;9.90;99.90
29577;DHT22;16509;53.862;10.672;2022-09-28T09:06:51;9.90;99.90
29577;DHT22;16509;53.862;10.672;2022-09-28T09:12:17;9.90;99.90
29577;DHT22;16509;53.862;10.672;2022-09-28T09:15:11;10.00;99.90
29577;DHT22;16509;53.862;10.672;2022-09-28T09:20:36;10.10;99.90
29577;DHT22;16509;53.862;10.672;2022-09-28T09:23:15;10.20;99.90
29577;DHT22;16509;53.862;10.672;2022-09-28T09:25:47;10.30;99.90
29577;DHT22;16509;53.862;10.672;2022-09-28T09:31:19;10.30;99.90
29577;DHT22;16509;53.862;10.672;2022-09-28T09:48:28;10.60;99.90
29577;DHT22;16509;53.862;10.672;2022-09-28T09:51:02;10.70;99.90
29577;DHT22;16509;53.862;10.672;2022-09-28T09:53:37;10.80;99.90
29577;DHT22;16509;53.862;10.672;2022-09-28T09:56:27;10.80;99.90
29577;DHT22;16509;53.862;10.672;2022-09-28T09:59:01;10.80;99.90
29577;DHT22;16509;53.862;10.672;2022-09-28T10:01:34;10.80;99.90
29577;DHT22;16509;53.862;10.672;2022-09-28T10:04:01;10.80;99.90
29577;DHT22;16509;53.862;10.672;2022-09-28T10:06:33;10.80;99.90
29577;DHT22;16509;53.862;10.672;2022-09-28T10:09:12;10.80;99.90
29577;DHT22;16509;53.862;10.672;2022-09-28T10:11:43;10.70;99.90
29577;DHT22;16509;53.862;10.672;2022-09-28T10:14:17;10.80;99.90
29577;DHT22;16509;53.862;10.672;2022-09-28T10:16:46;11.20;99.90
29577;DHT22;16509;53.862;10.672;2022-09-28T10:19:13;11.10;99.90
29577;DHT22;16509;53.862;10.672;2022-09-28T10:21:41;11.20;99.90
29577;DHT22;16509;53.862;10.672;2022-09-28T10:24:16;11.40;99.90
29577;DHT22;16509;53.862;10.672;2022-09-28T10:26:47;11.60;99.90
29577;DHT22;16509;53.862;10.672;2022-09-28T10:29:20;11.80;99.90
29577;DHT22;16509;53.862;10.672;2022-09-28T10:31:50;11.90;99.90
29577;DHT22;16509;53.862;10.672;2022-09-28T10:34:17;11.90;99.90
29577;DHT22;16509;53.862;10.672;2022-09-28T10:41:58;11.90;99.90
29577;DHT22;16509;53.862;10.672;2022-09-28T10:44:26;11.80;99.90
29577;DHT22;16509;53.862;10.672;2022-09-28T10:46:58;11.50;99.90
29577;DHT22;16509;53.862;10.672;2022-09-28T10:49:25;11.40;99.90
29577;DHT22;16509;53.862;10.672;2022-09-28T10:51:53;11.30;99.90
29577;DHT22;16509;53.862;10.672;2022-09-28T10:54:25;11.20;99.90
29577;DHT22;16509;53.862;10.672;2022-09-28T10:56:52;11.30;99.90
29577;DHT22;16509;53.862;10.672;2022-09-28T11:01:58;11.40;99.90
29577;DHT22;16509;53.862;10.672;2022-09-28T11:04:32;11.50;99.90
29577;DHT22;16509;53.862;10.672;2022-09-28T11:07:01;11.60;99.90
29577;DHT22;16509;53.862;10.672;2022-09-28T11:09:32;11.70;99.90
29577;DHT22;16509;53.862;10.672;2022-09-28T11:11:59;11.70;99.90
29577;DHT22;16509;53.862;10.672;2022-09-28T11:14:37;11.70;99.90
29577;DHT22;16509;53.862;10.672;2022-09-28T11:19:50;11.80;99.90
29577;DHT22;16509;53.862;10.672;2022-09-28T11:24:46;12.50;99.90
29577;DHT22;16509;53.862;10.672;2022-09-28T11:27:22;12.80;99.90
29577;DHT22;16509;53.862;10.672;2022-09-28T11:29:55;12.90;99.90
29577;DHT22;16509;53.862;10.672;2022-09-28T11:32:24;13.10;99.90
29577;DHT22;16509;53.862;10.672;2022-09-28T11:34:55;13.20;99.90
29577;DHT22;16509;53.862;10.672;2022-09-28T11:37:58;14.00;99.90
29577;DHT22;16509;53.862;10.672;2022-09-28T11:41:01;13.30;99.90
29577;DHT22;16509;53.862;10.672;2022-09-28T11:43:45;13.60;99.90
29577;DHT22;16509;53.862;10.672;2022-09-28T11:48:54;13.60;99.90
29577;DHT22;16509;53.862;10.672;2022-09-28T11:51:24;13.30;99.90
29577;DHT22;16509;53.862;10.672;2022-09-28T11:53:54;13.10;99.90
29577;DHT22;16509;53.862;10.672;2022-09-28T11:56:37;13.00;99.90
29577;DHT22;16509;53.862;10.672;2022-09-28T12:01:56;12.80;99.90
29577;DHT22;16509;53.862;10.672;2022-09-28T12:04:24;12.60;99.90
29577;DHT22;16509;53.862;10.672;2022-09-28T12:07:02;12.40;99.90
29577;DHT22;16509;53.862;10.672;2022-09-28T12:09:33;12.40;99.90
29577;DHT22;16509;53.862;10.672;2022-09-28T12:12:03;12.60;99.90
29577;DHT22;16509;53.862;10.672;2022-09-28T12:14:37;12.60;99.90
29577;DHT22;16509;53.862;10.672;2022-09-28T12:17:23;12.70;99.90
29577;DHT22;16509;53.862;10.672;2022-09-28T12:20:04;12.70;99.90
29577;DHT22;16509;53.862;10.672;2022-09-28T12:22:42;12.70;99.90
29577;DHT22;16509;53.862;10.672;2022-09-28T12:25:15;12.60;99.90
29577;DHT22;16509;53.862;10.672;2022-09-28T12:27:50;12.50;99.90
29577;DHT22;16509;53.862;10.672;2022-09-28T12:30:20;12.50;99.90
29577;DHT22;16509;53.862;10.672;2022-09-28T12:33:06;12.50;99.90
29577;DHT22;16509;53.862;10.672;2022-09-28T12:41:33;12.30;99.90
29577;DHT22;16509;53.862;10.672;2022-09-28T12:44:25;12.30;99.90
29577;DHT22;16509;53.862;10.672;2022-09-28T12:49:50;12.20;99.90
29577;DHT22;16509;53.862;10.672;2022-09-28T12:58:34;12.80;99.90
29577;DHT22;16509;53.862;10.672;2022-09-28T13:09:26;14.10;99.90
29577;DHT22;16509;53.862;10.672;2022-09-28T13:12:03;13.80;99.90
29577;DHT22;16509;53.862;10.672;2022-09-28T13:19:56;13.40;99.90
29577;DHT22;16509;53.862;10.672;2022-09-28T13:22:42;13.40;99.90
29577;DHT22;16509;53.862;10.672;2022-09-28T13:25:14;13.60;99.90
29577;DHT22;16509;53.862;10.672;2022-09-28T13:27:46;13.50;99.90
29577;DHT22;16509;53.862;10.672;2022-09-28T13:30:13;13.40;99.90
29577;DHT22;16509;53.862;10.672;2022-09-28T13:32:39;13.30;99.90
29577;DHT22;16509;53.862;10.672;2022-09-28T13:35:11;13.30;99.90
29577;DHT22;16509;53.862;10.672;2022-09-28T13:37:37;13.20;99.90
29577;DHT22;16509;53.862;10.672;2022-09-28T13:40:03;13.20;99.90
29577;DHT22;16509;53.862;10.672;2022-09-28T13:42:46;13.20;99.90
29577;DHT22;16509;53.862;10.672;2022-09-28T13:50:31;13.20;99.90
29577;DHT22;16509;53.862;10.672;2022-09-28T13:53:09;13.20;99.90
29577;DHT22;16509;53.862;10.672;2022-09-28T13:58:31;13.20;99.90
29577;DHT22;16509;53.862;10.672;2022-09-28T14:01:10;13.10;99.90
29577;DHT22;16509;53.862;10.672;2022-09-28T14:04:08;13.00;99.90
29577;DHT22;16509;53.862;10.672;2022-09-28T14:06:35;13.00;99.90
29577;DHT22;16509;53.862;10.672;2022-09-28T14:11:59;13.10;99.90
29577;DHT22;16509;53.862;10.672;2022-09-28T14:14:47;13.00;99.90
29577;DHT22;16509;53.862;10.672;2022-09-28T14:20:03;12.80;99.90
29577;DHT22;16509;53.862;10.672;2022-09-28T14:22:34;12.60;99.90
29577;DHT22;16509;53.862;10.672;2022-09-28T14:32:40;12.10;99.90
29577;DHT22;16509;53.862;10.672;2022-09-28T14:35:39;12.10;99.90
29577;DHT22;16509;53.862;10.672;2022-09-28T14:38:15;12.00;99.90
29577;DHT22;16509;53.862;10.672;2022-09-28T14:41:06;12.00;99.90
29577;DHT22;16509;53.862;10.672;2022-09-28T14:59:30;12.30;99.90
29577;DHT22;16509;53.862;10.672;2022-09-28T15:04:28;12.10;99.90
29577;DHT22;16509;53.862;10.672;2022-09-28T15:06:55;12.10;99.90
29577;DHT22;16509;53.862;10.672;2022-09-28T15:09:32;12.10;99.90
29577;DHT22;16509;53.862;10.672;2022-09-28T15:12:03;12.10;99.90
29577;DHT22;16509;53.862;10.672;2022-09-28T15:14:33;12.10;99.90
29577;DHT22;16509;53.862;10.672;2022-09-28T15:17:07;12.00;99.90
29577;DHT22;16509;53.862;10.672;2022-09-28T15:22:16;12.00;99.90
29577;DHT22;16509;53.862;10.672;2022-09-28T15:24:57;12.00;99.90
29577;DHT22;16509;53.862;10.672;2022-09-28T15:27:23;12.00;99.90
29577;DHT22;16509;53.862;10.672;2022-09-28T15:32:22;11.90;99.90
29577;DHT22;16509;53.862;10.672;2022-09-28T15:34:48;11.80;99.90
29577;DHT22;16509;53.862;10.672;2022-09-28T15:37:19;11.90;99.90
29577;DHT22;16509;53.862;10.672;2022-09-28T15:39:47;11.80;99.90
29577;DHT22;16509;53.862;10.672;2022-09-28T15:42:16;11.90;99.90
29577;DHT22;16509;53.862;10.672;2022-09-28T15:44:59;11.80;99.90
29577;DHT22;16509;53.862;10.672;2022-09-28T15:47:26;12.00;99.90
29577;DHT22;16509;53.862;10.672;2022-09-28T15:50:07;11.70;99.90
29577;DHT22;16509;53.862;10.672;2022-09-28T15:52:50;11.70;99.90
29577;DHT22;16509;53.862;10.672;2022-09-28T15:55:36;11.60;99.90
29577;DHT22;16509;53.862;10.672;2022-09-28T15:58:17;11.60;99.90
29577;DHT22;16509;53.862;10.672;2022-09-28T16:00:45;11.60;99.90
29577;DHT22;16509;53.862;10.672;2022-09-28T16:05:49;11.60;99.90
29577;DHT22;16509;53.862;10.672;2022-09-28T16:08:21;11.50;99.90
29577;DHT22;16509;53.862;10.672;2022-09-28T16:11:04;11.40;99.90
29577;DHT22;16509;53.862;10.672;2022-09-28T16:13:32;11.40;99.90
29577;DHT22;16509;53.862;10.672;2022-09-28T16:15:59;11.40;99.90
29577;DHT22;16509;53.862;10.672;2022-09-28T16:18:27;11.40;99.90
29577;DHT22;16509;53.862;10.672;2022-09-28T16:20:55;11.30;99.90
29577;DHT22;16509;53.862;10.672;2022-09-28T16:23:28;11.30;99.90
29577;DHT22;16509;53.862;10.672;2022-09-28T16:26:02;11.20;99.90
29577;DHT22;16509;53.862;10.672;2022-09-28T16:36:11;11.10;99.90
29577;DHT22;16509;53.862;10.672;2022-09-28T16:38:37;11.00;99.90
29577;DHT22;16509;53.862;10.672;2022-09-28T16:41:03;11.50;99.90
29577;DHT22;16509;53.862;10.672;2022-09-28T16:43:31;11.00;99.90
29577;DHT22;16509;53.862;10.672;2022-09-28T16:46:04;11.40;99.90
29577;DHT22;16509;53.862;10.672;2022-09-28T16:48:33;11.10;99.90
29577;DHT22;16509;53.862;10.672;2022-09-28T16:50:59;11.10;99.90
29577;DHT22;16509;53.862;10.672;2022-09-28T16:53:25;10.80;99.90
29577;DHT22;16509;53.862;10.672;2022-09-28T16:56:10;12.80;99.90
29577;DHT22;16509;53.862;10.672;2022-09-28T16:58:36;10.90;99.90
29577;DHT22;16509;53.862;10.672;2022-09-28T17:01:02;11.10;99.90
29577;DHT22;16509;53.862;10.672;2022-09-28T17:03:28;11.50;99.90
29577;DHT22;16509;53.862;10.672;2022-09-28T17:05:53;11.10;99.90
29577;DHT22;16509;53.862;10.672;2022-09-28T17:08:21;10.90;99.90
29577;DHT22;16509;53.862;10.672;2022-09-28T17:10:56;11.10;99.90
29577;DHT22;16509;53.862;10.672;2022-09-28T17:13:27;11.00;99.90
29577;DHT22;16509;53.862;10.672;2022-09-28T17:16:04;11.30;99.90
29577;DHT22;16509;53.862;10.672;2022-09-28T17:18:33;11.40;99.90
29577;DHT22;16509;53.862;10.672;2022-09-28T17:21:02;11.20;99.90
29577;DHT22;16509;53.862;10.672;2022-09-28T17:23:28;11.20;99.90
29577;DHT22;16509;53.862;10.672;2022-09-28T17:25:54;11.80;99.90
29577;DHT22;16509;53.862;10.672;2022-09-28T17:28:26;11.00;99.90
29577;DHT22;16509;53.862;10.672;2022-09-28T17:30:52;12.40;99.90
29577;DHT22;16509;53.862;10.672;2022-09-28T17:33:18;11.60;99.90
29577;DHT22;16509;53.862;10.672;2022-09-28T17:35:44;10.70;99.90
29577;DHT22;16509;53.862;10.672;2022-09-28T17:38:11;11.20;99.90
29577;DHT22;16509;53.862;10.672;2022-09-28T17:40:37;10.80;99.90
29577;DHT22;16509;53.862;10.672;2022-09-28T17:43:03;10.70;99.90
29577;DHT22;16509;53.862;10.672;2022-09-28T17:45:30;10.70;99.90
29577;DHT22;16509;53.862;10.672;2022-09-28T17:51:02;10.90;99.90
29577;DHT22;16509;53.862;10.672;2022-09-28T17:53:28;10.90;99.90
29577;DHT22;16509;53.862;10.672;2022-09-28T17:55:53;13.00;99.90
29577;DHT22;16509;53.862;10.672;2022-09-28T17:58:21;10.20;99.90
29577;DHT22;16509;53.862;10.672;2022-09-28T18:00:49;13.60;99.90
29577;DHT22;16509;53.862;10.672;2022-09-28T18:03:20;12.60;99.90
29577;DHT22;16509;53.862;10.672;2022-09-28T18:05:49;10.00;99.90
29577;DHT22;16509;53.862;10.672;2022-09-28T18:08:19;9.40;99.90
29577;DHT22;16509;53.862;10.672;2022-09-28T18:10:45;9.40;99.90
29577;DHT22;16509;53.862;10.672;2022-09-28T18:13:13;12.40;99.90
29577;DHT22;16509;53.862;10.672;2022-09-28T18:15:39;10.60;99.90
29577;DHT22;16509;53.862;10.672;2022-09-28T18:18:05;10.60;99.90
29577;DHT22;16509;53.862;10.672;2022-09-28T18:20:35;10.70;99.90